Terminal Aerodrome Forecast
Issued by NWS St Louis, MO

Home | Current Version | Previous Version | Text Only | Print | Product List | Glossary On
Versions: 1 2 3 4 5 6 7 8 9 10 11 12 13 14 15 16 17 18 19 20 21 22 23 24 25 26 27 28 29 30
000
FTUS43 KLSX 071400 AAA
TAFSTL
TAF AMD
KSTL 071455Z 0715/0818 25012KT P6SM SCT050 SCT150
      TEMPO 0715/0717 BKN030
     FM072000 25008KT P6SM VCTS SCT050CB SCT100
     FM080000 24005KT P6SM SCT080
     FM080700 25009KT P6SM VCTS BKN050CB
      TEMPO 0807/0809 VRB20G40KT 1SM +TSRA OVC015CB
     FM080900 VRB04KT 5SM -TSRA OVC060CB
     FM081100 29006KT P6SM -SHRA SCT030 OVC050=

USA.gov is the U.S. government's official web portal to all federal, state and local government web resources and services.